CheckWX is a tool to help pilots better visualize weather data.  It is not intended as a substitute for an official pre-flight weather briefing.

18:01:26 UTC

82C METAR
Mauston-New Lisbon Union Airport
New Lisbon, Wisconsin, USA
Current

6 mins ago

K82C 171755Z AUTO 06007KT 030V090 1 1/4SM -SN OVC018 M04/M07 A2995 RMK AO2 T10421074 11042 21062
Observed
Feb-17 @ 17:55 UTC
Wind
  • 060° at 7 KTS
Visibility
1 1/4 SM
Flight Rules
IFR
Conditions
Light Snow
Cloud Levels
  • Overcast at 1,800' AGL
Temperature
-4°C / 25°F
Dewpoint
-7°C / 19°F
Humidity
80%
Altimeter
29.95" Hg
Pressure
1014.22 hPa
Previous

26 mins ago

K82C 171735Z AUTO 07006KT 1 1/4SM -SN OVC018 M04/M07 A2995 RMK AO2 T10431075
Observed
Feb-17 @ 17:35 UTC
Wind
  • 070° at 6 KTS
Visibility
1 1/4 SM
Flight Rules
IFR
Conditions
Light Snow
Cloud Levels
  • Overcast at 1,800' AGL
Temperature
-4°C / 25°F
Dewpoint
-8°C / 18°F
Humidity
74%
Altimeter
29.95" Hg
Pressure
1014.22 hPa
Previous

46 mins ago

K82C 171715Z AUTO 07007G16KT 2SM -SN OVC018 M05/M08 A2995 RMK AO2 T10461080
Observed
Feb-17 @ 17:15 UTC
Wind
  • 070° at 7 KTS
  • Gusting to 16 KTS
Visibility
2 SM
Flight Rules
IFR
Conditions
Light Snow
Cloud Levels
  • Overcast at 1,800' AGL
Temperature
-5°C / 23°F
Dewpoint
-8°C / 18°F
Humidity
80%
Altimeter
29.95" Hg
Pressure
1014.22 hPa